sensor_id;sensor_type;location;lat;lon;timestamp;temperature;humidity
47090;DHT22;32840;52.516;13.294;2023-02-11T00:00:34;5.60;99.90
47090;DHT22;32840;52.516;13.294;2023-02-11T00:03:19;5.50;99.90
47090;DHT22;32840;52.516;13.294;2023-02-11T00:06:05;5.50;99.90
47090;DHT22;32840;52.516;13.294;2023-02-11T00:08:54;5.60;99.90
47090;DHT22;32840;52.516;13.294;2023-02-11T00:11:42;5.60;99.90
47090;DHT22;32840;52.516;13.294;2023-02-11T00:14:27;5.60;99.90
47090;DHT22;32840;52.516;13.294;2023-02-11T00:17:12;5.60;99.90
47090;DHT22;32840;52.516;13.294;2023-02-11T00:19:57;5.50;99.90
47090;DHT22;32840;52.516;13.294;2023-02-11T00:22:42;5.50;99.90
47090;DHT22;32840;52.516;13.294;2023-02-11T00:25:27;5.50;99.90
47090;DHT22;32840;52.516;13.294;2023-02-11T00:28:12;5.50;99.90
47090;DHT22;32840;52.516;13.294;2023-02-11T00:30:57;5.60;99.90
47090;DHT22;32840;52.516;13.294;2023-02-11T00:33:44;5.50;99.90
47090;DHT22;32840;52.516;13.294;2023-02-11T00:36:29;5.60;99.90
47090;DHT22;32840;52.516;13.294;2023-02-11T00:39:14;5.70;99.90
47090;DHT22;32840;52.516;13.294;2023-02-11T00:41:59;5.70;99.90
47090;DHT22;32840;52.516;13.294;2023-02-11T00:44:45;5.70;99.90
47090;DHT22;32840;52.516;13.294;2023-02-11T00:47:30;5.80;99.90
47090;DHT22;32840;52.516;13.294;2023-02-11T00:50:16;5.80;99.90
47090;DHT22;32840;52.516;13.294;2023-02-11T00:53:01;5.80;99.90
47090;DHT22;32840;52.516;13.294;2023-02-11T00:55:47;5.80;99.90
47090;DHT22;32840;52.516;13.294;2023-02-11T00:58:33;5.80;99.90
47090;DHT22;32840;52.516;13.294;2023-02-11T01:01:18;5.90;99.90
47090;DHT22;32840;52.516;13.294;2023-02-11T01:04:03;5.90;99.90
47090;DHT22;32840;52.516;13.294;2023-02-11T01:06:51;5.90;99.90
47090;DHT22;32840;52.516;13.294;2023-02-11T01:09:39;5.90;99.90
47090;DHT22;32840;52.516;13.294;2023-02-11T01:12:24;5.90;99.90
47090;DHT22;32840;52.516;13.294;2023-02-11T01:15:13;5.80;99.90
47090;DHT22;32840;52.516;13.294;2023-02-11T01:17:59;5.90;99.90
47090;DHT22;32840;52.516;13.294;2023-02-11T01:20:45;5.80;99.90
47090;DHT22;32840;52.516;13.294;2023-02-11T01:23:31;5.80;99.90
47090;DHT22;32840;52.516;13.294;2023-02-11T01:26:15;5.80;99.90
47090;DHT22;32840;52.516;13.294;2023-02-11T01:29:00;5.80;99.90
47090;DHT22;32840;52.516;13.294;2023-02-11T01:31:45;5.80;99.90
47090;DHT22;32840;52.516;13.294;2023-02-11T01:34:32;5.90;99.90
47090;DHT22;32840;52.516;13.294;2023-02-11T01:37:17;5.80;99.90
47090;DHT22;32840;52.516;13.294;2023-02-11T01:40:05;5.90;99.90
47090;DHT22;32840;52.516;13.294;2023-02-11T01:42:51;5.80;99.90
47090;DHT22;32840;52.516;13.294;2023-02-11T01:48:34;5.90;99.90
47090;DHT22;32840;52.516;13.294;2023-02-11T01:51:27;6.00;99.90
47090;DHT22;32840;52.516;13.294;2023-02-11T01:54:18;6.00;99.90
47090;DHT22;32840;52.516;13.294;2023-02-11T01:57:26;6.00;99.90
47090;DHT22;32840;52.516;13.294;2023-02-11T02:00:19;6.10;99.90
47090;DHT22;32840;52.516;13.294;2023-02-11T02:03:12;6.10;99.90
47090;DHT22;32840;52.516;13.294;2023-02-11T02:06:06;6.00;99.90
47090;DHT22;32840;52.516;13.294;2023-02-11T02:08:59;6.00;99.90
47090;DHT22;32840;52.516;13.294;2023-02-11T02:11:49;6.00;99.90
47090;DHT22;32840;52.516;13.294;2023-02-11T02:14:37;6.10;99.90
47090;DHT22;32840;52.516;13.294;2023-02-11T02:17:39;6.10;99.90
47090;DHT22;32840;52.516;13.294;2023-02-11T02:27:18;6.20;99.90
47090;DHT22;32840;52.516;13.294;2023-02-11T02:33:54;6.20;99.90
47090;DHT22;32840;52.516;13.294;2023-02-11T02:37:03;6.20;99.90
47090;DHT22;32840;52.516;13.294;2023-02-11T02:39:50;6.30;99.90
47090;DHT22;32840;52.516;13.294;2023-02-11T02:42:37;6.30;99.90
47090;DHT22;32840;52.516;13.294;2023-02-11T02:45:24;6.20;99.90
47090;DHT22;32840;52.516;13.294;2023-02-11T02:48:31;6.20;99.90
47090;DHT22;32840;52.516;13.294;2023-02-11T03:01:07;6.30;99.90
47090;DHT22;32840;52.516;13.294;2023-02-11T03:04:36;6.40;99.90
47090;DHT22;32840;52.516;13.294;2023-02-11T03:08:05;6.40;99.90
47090;DHT22;32840;52.516;13.294;2023-02-11T03:10:53;6.40;99.90
47090;DHT22;32840;52.516;13.294;2023-02-11T03:13:39;6.40;99.90
47090;DHT22;32840;52.516;13.294;2023-02-11T03:16:29;6.40;99.90
47090;DHT22;32840;52.516;13.294;2023-02-11T03:19:29;6.40;99.90
47090;DHT22;32840;52.516;13.294;2023-02-11T03:22:24;6.40;99.90
47090;DHT22;32840;52.516;13.294;2023-02-11T03:25:10;6.40;99.90
47090;DHT22;32840;52.516;13.294;2023-02-11T03:28:15;6.40;99.90
47090;DHT22;32840;52.516;13.294;2023-02-11T03:31:19;6.40;99.90
47090;DHT22;32840;52.516;13.294;2023-02-11T03:34:17;6.40;99.90
47090;DHT22;32840;52.516;13.294;2023-02-11T03:37:13;6.40;99.90
47090;DHT22;32840;52.516;13.294;2023-02-11T03:40:27;6.40;99.90
47090;DHT22;32840;52.516;13.294;2023-02-11T03:43:24;6.40;99.90
47090;DHT22;32840;52.516;13.294;2023-02-11T03:46:11;6.40;99.90
47090;DHT22;32840;52.516;13.294;2023-02-11T03:49:05;6.40;99.90
47090;DHT22;32840;52.516;13.294;2023-02-11T03:51:52;6.40;99.90
47090;DHT22;32840;52.516;13.294;2023-02-11T03:54:41;6.40;99.90
47090;DHT22;32840;52.516;13.294;2023-02-11T03:57:26;6.40;99.90
47090;DHT22;32840;52.516;13.294;2023-02-11T04:00:12;6.40;99.90
47090;DHT22;32840;52.516;13.294;2023-02-11T04:02:57;6.40;99.90
47090;DHT22;32840;52.516;13.294;2023-02-11T04:05:42;6.40;99.90
47090;DHT22;32840;52.516;13.294;2023-02-11T04:08:27;6.40;99.90
47090;DHT22;32840;52.516;13.294;2023-02-11T04:11:12;6.50;99.90
47090;DHT22;32840;52.516;13.294;2023-02-11T04:13:57;6.50;99.90
47090;DHT22;32840;52.516;13.294;2023-02-11T04:16:42;6.50;99.90
47090;DHT22;32840;52.516;13.294;2023-02-11T04:19:27;6.50;99.90
47090;DHT22;32840;52.516;13.294;2023-02-11T04:22:14;6.50;99.90
47090;DHT22;32840;52.516;13.294;2023-02-11T04:24:59;6.50;99.90
47090;DHT22;32840;52.516;13.294;2023-02-11T04:27:44;6.60;99.90
47090;DHT22;32840;52.516;13.294;2023-02-11T04:30:29;6.50;99.90
47090;DHT22;32840;52.516;13.294;2023-02-11T04:33:14;6.50;99.90
47090;DHT22;32840;52.516;13.294;2023-02-11T04:36:01;6.60;99.90
47090;DHT22;32840;52.516;13.294;2023-02-11T04:38:46;6.50;99.90
47090;DHT22;32840;52.516;13.294;2023-02-11T04:41:31;6.50;99.90
47090;DHT22;32840;52.516;13.294;2023-02-11T04:44:16;6.50;99.90
47090;DHT22;32840;52.516;13.294;2023-02-11T04:47:02;6.50;99.90
47090;DHT22;32840;52.516;13.294;2023-02-11T04:49:46;6.50;99.90
47090;DHT22;32840;52.516;13.294;2023-02-11T04:52:32;6.50;99.90
47090;DHT22;32840;52.516;13.294;2023-02-11T04:55:17;6.50;99.90
47090;DHT22;32840;52.516;13.294;2023-02-11T04:58:04;6.50;99.90
47090;DHT22;32840;52.516;13.294;2023-02-11T05:00:49;6.40;99.90
47090;DHT22;32840;52.516;13.294;2023-02-11T05:03:34;6.40;99.90
47090;DHT22;32840;52.516;13.294;2023-02-11T05:06:20;6.50;99.90
47090;DHT22;32840;52.516;13.294;2023-02-11T05:09:06;6.50;99.90
47090;DHT22;32840;52.516;13.294;2023-02-11T05:11:51;6.50;99.90
47090;DHT22;32840;52.516;13.294;2023-02-11T05:14:36;6.50;99.90
47090;DHT22;32840;52.516;13.294;2023-02-11T05:17:21;6.50;99.90
47090;DHT22;32840;52.516;13.294;2023-02-11T05:20:07;6.50;99.90
47090;DHT22;32840;52.516;13.294;2023-02-11T05:22:52;6.60;99.90
47090;DHT22;32840;52.516;13.294;2023-02-11T05:25:37;6.60;99.90
47090;DHT22;32840;52.516;13.294;2023-02-11T05:28:22;6.60;99.90
47090;DHT22;32840;52.516;13.294;2023-02-11T05:31:07;6.50;99.90
47090;DHT22;32840;52.516;13.294;2023-02-11T05:33:52;6.50;99.90
47090;DHT22;32840;52.516;13.294;2023-02-11T05:36:37;6.60;99.90
47090;DHT22;32840;52.516;13.294;2023-02-11T05:39:22;6.60;99.90
47090;DHT22;32840;52.516;13.294;2023-02-11T05:42:07;6.60;99.90
47090;DHT22;32840;52.516;13.294;2023-02-11T05:44:53;6.60;99.90
47090;DHT22;32840;52.516;13.294;2023-02-11T05:47:37;6.60;99.90
47090;DHT22;32840;52.516;13.294;2023-02-11T05:50:23;6.60;99.90
47090;DHT22;32840;52.516;13.294;2023-02-11T05:53:07;6.60;99.90
47090;DHT22;32840;52.516;13.294;2023-02-11T05:55:52;6.60;99.90
47090;DHT22;32840;52.516;13.294;2023-02-11T05:58:37;6.60;99.90
47090;DHT22;32840;52.516;13.294;2023-02-11T06:01:22;6.60;99.90
47090;DHT22;32840;52.516;13.294;2023-02-11T06:04:07;6.60;99.90
47090;DHT22;32840;52.516;13.294;2023-02-11T06:06:53;6.70;99.90
47090;DHT22;32840;52.516;13.294;2023-02-11T06:09:41;6.70;99.90
47090;DHT22;32840;52.516;13.294;2023-02-11T06:12:27;6.60;99.90
47090;DHT22;32840;52.516;13.294;2023-02-11T06:15:12;6.60;99.90
47090;DHT22;32840;52.516;13.294;2023-02-11T06:17:57;6.60;99.90
47090;DHT22;32840;52.516;13.294;2023-02-11T06:20:42;6.70;99.90
47090;DHT22;32840;52.516;13.294;2023-02-11T06:23:28;6.70;99.90
47090;DHT22;32840;52.516;13.294;2023-02-11T06:26:21;6.70;99.90
47090;DHT22;32840;52.516;13.294;2023-02-11T06:29:06;6.80;99.90
47090;DHT22;32840;52.516;13.294;2023-02-11T06:31:52;6.80;99.90
47090;DHT22;32840;52.516;13.294;2023-02-11T06:34:37;6.80;99.90
47090;DHT22;32840;52.516;13.294;2023-02-11T06:37:23;6.80;99.90
47090;DHT22;32840;52.516;13.294;2023-02-11T06:40:21;6.80;99.90
47090;DHT22;32840;52.516;13.294;2023-02-11T06:43:47;6.80;99.90
47090;DHT22;32840;52.516;13.294;2023-02-11T06:46:32;6.80;99.90
47090;DHT22;32840;52.516;13.294;2023-02-11T06:49:17;6.90;99.90
47090;DHT22;32840;52.516;13.294;2023-02-11T06:52:02;6.90;99.90
47090;DHT22;32840;52.516;13.294;2023-02-11T06:54:47;6.90;99.90
47090;DHT22;32840;52.516;13.294;2023-02-11T06:57:32;7.00;99.90
47090;DHT22;32840;52.516;13.294;2023-02-11T07:00:18;6.90;99.90
47090;DHT22;32840;52.516;13.294;2023-02-11T07:03:05;6.90;99.90
47090;DHT22;32840;52.516;13.294;2023-02-11T07:05:50;7.00;99.90
47090;DHT22;32840;52.516;13.294;2023-02-11T07:08:36;6.90;99.90
47090;DHT22;32840;52.516;13.294;2023-02-11T07:11:27;7.00;99.90
47090;DHT22;32840;52.516;13.294;2023-02-11T07:14:13;7.00;99.90
47090;DHT22;32840;52.516;13.294;2023-02-11T07:17:00;7.10;99.90
47090;DHT22;32840;52.516;13.294;2023-02-11T07:19:46;7.20;99.90
47090;DHT22;32840;52.516;13.294;2023-02-11T07:22:33;7.20;99.90
47090;DHT22;32840;52.516;13.294;2023-02-11T07:25:18;7.20;99.90
47090;DHT22;32840;52.516;13.294;2023-02-11T07:28:05;7.10;99.90
47090;DHT22;32840;52.516;13.294;2023-02-11T07:30:51;7.20;99.90
47090;DHT22;32840;52.516;13.294;2023-02-11T07:33:37;7.30;99.90
47090;DHT22;32840;52.516;13.294;2023-02-11T07:36:23;7.30;99.90
47090;DHT22;32840;52.516;13.294;2023-02-11T07:39:33;7.30;99.90
47090;DHT22;32840;52.516;13.294;2023-02-11T07:42:29;7.40;99.90
47090;DHT22;32840;52.516;13.294;2023-02-11T07:45:16;7.50;99.90
47090;DHT22;32840;52.516;13.294;2023-02-11T07:48:02;7.50;99.90
47090;DHT22;32840;52.516;13.294;2023-02-11T07:50:46;7.60;99.90
47090;DHT22;32840;52.516;13.294;2023-02-11T07:53:32;7.50;99.90
47090;DHT22;32840;52.516;13.294;2023-02-11T07:56:20;7.50;99.90
47090;DHT22;32840;52.516;13.294;2023-02-11T07:59:07;7.50;99.90
47090;DHT22;32840;52.516;13.294;2023-02-11T08:01:52;7.50;99.90
47090;DHT22;32840;52.516;13.294;2023-02-11T08:04:36;7.50;99.90
47090;DHT22;32840;52.516;13.294;2023-02-11T08:07:22;7.40;99.90
47090;DHT22;32840;52.516;13.294;2023-02-11T08:10:08;7.50;99.90
47090;DHT22;32840;52.516;13.294;2023-02-11T08:12:53;7.50;99.90
47090;DHT22;32840;52.516;13.294;2023-02-11T08:15:38;7.50;99.90
47090;DHT22;32840;52.516;13.294;2023-02-11T08:18:24;7.60;99.90
47090;DHT22;32840;52.516;13.294;2023-02-11T08:21:10;7.50;99.90
47090;DHT22;32840;52.516;13.294;2023-02-11T08:23:55;7.50;99.90
47090;DHT22;32840;52.516;13.294;2023-02-11T08:26:52;7.60;99.90
47090;DHT22;32840;52.516;13.294;2023-02-11T08:29:36;7.60;99.90
47090;DHT22;32840;52.516;13.294;2023-02-11T08:32:26;7.60;99.90
47090;DHT22;32840;52.516;13.294;2023-02-11T08:35:12;7.60;99.90
47090;DHT22;32840;52.516;13.294;2023-02-11T08:38:17;7.60;99.90
47090;DHT22;32840;52.516;13.294;2023-02-11T08:41:03;7.60;99.90
47090;DHT22;32840;52.516;13.294;2023-02-11T08:43:49;7.60;99.90
47090;DHT22;32840;52.516;13.294;2023-02-11T08:46:37;7.60;99.90
47090;DHT22;32840;52.516;13.294;2023-02-11T08:49:22;7.70;99.90
47090;DHT22;32840;52.516;13.294;2023-02-11T08:52:11;7.70;99.90
47090;DHT22;32840;52.516;13.294;2023-02-11T08:55:05;7.60;99.90
47090;DHT22;32840;52.516;13.294;2023-02-11T08:57:51;7.60;99.90
47090;DHT22;32840;52.516;13.294;2023-02-11T09:00:35;7.60;99.90
47090;DHT22;32840;52.516;13.294;2023-02-11T09:03:21;7.60;99.90
47090;DHT22;32840;52.516;13.294;2023-02-11T09:06:09;7.70;99.90
47090;DHT22;32840;52.516;13.294;2023-02-11T09:08:56;7.70;99.90
47090;DHT22;32840;52.516;13.294;2023-02-11T09:11:43;7.80;99.90
47090;DHT22;32840;52.516;13.294;2023-02-11T09:14:30;7.80;99.90
47090;DHT22;32840;52.516;13.294;2023-02-11T09:17:15;7.70;99.90
47090;DHT22;32840;52.516;13.294;2023-02-11T09:20:00;7.80;99.90
47090;DHT22;32840;52.516;13.294;2023-02-11T09:22:51;7.70;99.90
47090;DHT22;32840;52.516;13.294;2023-02-11T09:25:38;7.80;99.90
47090;DHT22;32840;52.516;13.294;2023-02-11T09:28:25;7.80;99.90
47090;DHT22;32840;52.516;13.294;2023-02-11T09:31:26;7.80;99.90
47090;DHT22;32840;52.516;13.294;2023-02-11T09:34:14;7.80;99.90
47090;DHT22;32840;52.516;13.294;2023-02-11T09:36:59;7.90;99.90
47090;DHT22;32840;52.516;13.294;2023-02-11T09:39:45;7.90;99.90
47090;DHT22;32840;52.516;13.294;2023-02-11T09:42:50;7.90;99.90
47090;DHT22;32840;52.516;13.294;2023-02-11T09:45:37;8.00;99.90
47090;DHT22;32840;52.516;13.294;2023-02-11T09:48:22;8.00;99.90
47090;DHT22;32840;52.516;13.294;2023-02-11T09:51:18;8.00;99.90
47090;DHT22;32840;52.516;13.294;2023-02-11T09:54:13;7.90;99.90
47090;DHT22;32840;52.516;13.294;2023-02-11T09:57:00;8.00;99.90
47090;DHT22;32840;52.516;13.294;2023-02-11T09:59:46;8.00;99.90
47090;DHT22;32840;52.516;13.294;2023-02-11T10:02:50;8.10;99.90
47090;DHT22;32840;52.516;13.294;2023-02-11T10:13:05;8.10;99.90
47090;DHT22;32840;52.516;13.294;2023-02-11T10:16:20;8.10;99.90
47090;DHT22;32840;52.516;13.294;2023-02-11T10:22:43;8.10;99.90
47090;DHT22;32840;52.516;13.294;2023-02-11T10:25:43;8.10;99.90
47090;DHT22;32840;52.516;13.294;2023-02-11T10:28:35;8.10;99.90
47090;DHT22;32840;52.516;13.294;2023-02-11T10:31:36;8.20;99.90
47090;DHT22;32840;52.516;13.294;2023-02-11T10:34:22;8.20;99.90
47090;DHT22;32840;52.516;13.294;2023-02-11T10:37:11;8.20;99.90
47090;DHT22;32840;52.516;13.294;2023-02-11T10:39:56;8.20;99.90
47090;DHT22;32840;52.516;13.294;2023-02-11T10:42:56;8.20;99.90
47090;DHT22;32840;52.516;13.294;2023-02-11T10:45:46;8.20;99.90
47090;DHT22;32840;52.516;13.294;2023-02-11T10:48:44;8.20;99.90
47090;DHT22;32840;52.516;13.294;2023-02-11T10:51:31;8.20;99.90
47090;DHT22;32840;52.516;13.294;2023-02-11T10:54:22;8.20;99.90
47090;DHT22;32840;52.516;13.294;2023-02-11T10:57:17;8.30;99.90
47090;DHT22;32840;52.516;13.294;2023-02-11T11:00:34;8.30;99.90
47090;DHT22;32840;52.516;13.294;2023-02-11T11:03:26;8.20;99.90
47090;DHT22;32840;52.516;13.294;2023-02-11T11:06:12;8.30;99.90
47090;DHT22;32840;52.516;13.294;2023-02-11T11:08:57;8.30;99.90
47090;DHT22;32840;52.516;13.294;2023-02-11T11:11:50;8.30;99.90
47090;DHT22;32840;52.516;13.294;2023-02-11T11:14:36;8.30;99.90
47090;DHT22;32840;52.516;13.294;2023-02-11T11:17:21;8.30;99.90
47090;DHT22;32840;52.516;13.294;2023-02-11T11:20:23;8.30;99.90
47090;DHT22;32840;52.516;13.294;2023-02-11T11:23:17;8.40;99.90
47090;DHT22;32840;52.516;13.294;2023-02-11T11:26:09;8.30;99.90
47090;DHT22;32840;52.516;13.294;2023-02-11T11:28:59;8.40;99.90
47090;DHT22;32840;52.516;13.294;2023-02-11T11:31:57;8.40;99.90
47090;DHT22;32840;52.516;13.294;2023-02-11T11:34:50;8.30;99.90
47090;DHT22;32840;52.516;13.294;2023-02-11T11:37:44;8.30;99.90
47090;DHT22;32840;52.516;13.294;2023-02-11T11:48:36;8.40;99.90
47090;DHT22;32840;52.516;13.294;2023-02-11T11:51:23;8.40;99.90
47090;DHT22;32840;52.516;13.294;2023-02-11T11:54:12;8.40;99.90
47090;DHT22;32840;52.516;13.294;2023-02-11T11:57:09;8.40;99.90
47090;DHT22;32840;52.516;13.294;2023-02-11T11:59:57;8.50;99.90
47090;DHT22;32840;52.516;13.294;2023-02-11T12:03:08;8.40;99.90
47090;DHT22;32840;52.516;13.294;2023-02-11T12:06:06;8.40;99.90
47090;DHT22;32840;52.516;13.294;2023-02-11T12:09:21;8.50;99.90
47090;DHT22;32840;52.516;13.294;2023-02-11T12:12:22;8.50;99.90
47090;DHT22;32840;52.516;13.294;2023-02-11T12:18:35;8.60;99.90
47090;DHT22;32840;52.516;13.294;2023-02-11T12:25:07;8.60;99.90
47090;DHT22;32840;52.516;13.294;2023-02-11T12:28:32;8.60;99.90
47090;DHT22;32840;52.516;13.294;2023-02-11T12:34:50;8.60;99.90
47090;DHT22;32840;52.516;13.294;2023-02-11T12:37:57;8.60;99.90
47090;DHT22;32840;52.516;13.294;2023-02-11T12:45:08;8.70;99.90
47090;DHT22;32840;52.516;13.294;2023-02-11T12:48:26;8.70;99.90
47090;DHT22;32840;52.516;13.294;2023-02-11T12:51:39;8.70;99.90
47090;DHT22;32840;52.516;13.294;2023-02-11T12:54:34;8.80;99.90
47090;DHT22;32840;52.516;13.294;2023-02-11T12:57:23;8.80;99.90
47090;DHT22;32840;52.516;13.294;2023-02-11T13:00:19;8.80;99.90
47090;DHT22;32840;52.516;13.294;2023-02-11T13:05:57;8.90;99.90
47090;DHT22;32840;52.516;13.294;2023-02-11T13:08:51;8.90;99.90
47090;DHT22;32840;52.516;13.294;2023-02-11T13:11:39;8.80;99.90
47090;DHT22;32840;52.516;13.294;2023-02-11T13:14:37;8.80;99.90
47090;DHT22;32840;52.516;13.294;2023-02-11T13:17:39;8.90;99.90
47090;DHT22;32840;52.516;13.294;2023-02-11T13:20:51;8.90;99.90
47090;DHT22;32840;52.516;13.294;2023-02-11T13:27:00;8.90;99.90
47090;DHT22;32840;52.516;13.294;2023-02-11T13:30:12;8.90;99.90
47090;DHT22;32840;52.516;13.294;2023-02-11T13:33:17;8.90;99.90
47090;DHT22;32840;52.516;13.294;2023-02-11T13:38:59;8.90;99.90
47090;DHT22;32840;52.516;13.294;2023-02-11T13:41:48;9.00;99.90
47090;DHT22;32840;52.516;13.294;2023-02-11T13:44:35;9.00;99.90
47090;DHT22;32840;52.516;13.294;2023-02-11T13:47:28;9.00;99.90
47090;DHT22;32840;52.516;13.294;2023-02-11T13:50:21;9.00;99.90
47090;DHT22;32840;52.516;13.294;2023-02-11T13:53:07;9.10;99.90
47090;DHT22;32840;52.516;13.294;2023-02-11T13:56:08;9.00;99.90
47090;DHT22;32840;52.516;13.294;2023-02-11T13:58:55;9.00;99.90
47090;DHT22;32840;52.516;13.294;2023-02-11T14:05:15;9.10;99.90
47090;DHT22;32840;52.516;13.294;2023-02-11T14:08:23;9.00;99.90
47090;DHT22;32840;52.516;13.294;2023-02-11T14:14:24;9.10;99.90
47090;DHT22;32840;52.516;13.294;2023-02-11T14:20:02;9.00;99.90
47090;DHT22;32840;52.516;13.294;2023-02-11T14:22:49;9.10;99.90
47090;DHT22;32840;52.516;13.294;2023-02-11T14:25:35;9.00;99.90
47090;DHT22;32840;52.516;13.294;2023-02-11T14:28:25;9.10;99.90
47090;DHT22;32840;52.516;13.294;2023-02-11T14:31:20;9.10;99.90
47090;DHT22;32840;52.516;13.294;2023-02-11T14:37:02;9.00;99.90
47090;DHT22;32840;52.516;13.294;2023-02-11T14:43:22;9.10;99.90
47090;DHT22;32840;52.516;13.294;2023-02-11T14:46:08;9.10;99.90
47090;DHT22;32840;52.516;13.294;2023-02-11T14:48:55;9.10;99.90
47090;DHT22;32840;52.516;13.294;2023-02-11T14:51:41;9.10;99.90
47090;DHT22;32840;52.516;13.294;2023-02-11T14:54:27;9.10;99.90
47090;DHT22;32840;52.516;13.294;2023-02-11T14:57:18;9.10;99.90
47090;DHT22;32840;52.516;13.294;2023-02-11T15:00:16;9.10;99.90
47090;DHT22;32840;52.516;13.294;2023-02-11T15:03:03;9.10;99.90
47090;DHT22;32840;52.516;13.294;2023-02-11T15:09:22;9.10;99.90
47090;DHT22;32840;52.516;13.294;2023-02-11T15:12:21;9.00;99.90
47090;DHT22;32840;52.516;13.294;2023-02-11T15:15:11;9.00;99.90
47090;DHT22;32840;52.516;13.294;2023-02-11T15:17:58;9.10;99.90
47090;DHT22;32840;52.516;13.294;2023-02-11T15:20:46;9.00;99.90
47090;DHT22;32840;52.516;13.294;2023-02-11T15:23:31;9.00;99.90
47090;DHT22;32840;52.516;13.294;2023-02-11T15:26:20;9.00;99.90
47090;DHT22;32840;52.516;13.294;2023-02-11T15:29:15;9.00;99.90
47090;DHT22;32840;52.516;13.294;2023-02-11T15:32:11;9.00;99.90
47090;DHT22;32840;52.516;13.294;2023-02-11T15:34:56;9.00;99.90
47090;DHT22;32840;52.516;13.294;2023-02-11T15:37:42;8.90;99.90
47090;DHT22;32840;52.516;13.294;2023-02-11T15:40:32;8.90;99.90
47090;DHT22;32840;52.516;13.294;2023-02-11T15:43:18;8.90;99.90
47090;DHT22;32840;52.516;13.294;2023-02-11T15:46:04;8.90;99.90
47090;DHT22;32840;52.516;13.294;2023-02-11T15:48:51;8.90;99.90
47090;DHT22;32840;52.516;13.294;2023-02-11T15:51:37;8.90;99.90
47090;DHT22;32840;52.516;13.294;2023-02-11T15:54:26;8.90;99.90
47090;DHT22;32840;52.516;13.294;2023-02-11T15:57:11;8.90;99.90
47090;DHT22;32840;52.516;13.294;2023-02-11T15:59:58;8.90;99.90
47090;DHT22;32840;52.516;13.294;2023-02-11T16:02:48;8.80;99.90
47090;DHT22;32840;52.516;13.294;2023-02-11T16:05:37;8.80;99.90
47090;DHT22;32840;52.516;13.294;2023-02-11T16:08:28;8.80;99.90
47090;DHT22;32840;52.516;13.294;2023-02-11T16:11:27;8.80;99.90
47090;DHT22;32840;52.516;13.294;2023-02-11T16:14:30;8.80;99.90
47090;DHT22;32840;52.516;13.294;2023-02-11T16:20:03;8.80;99.90
47090;DHT22;32840;52.516;13.294;2023-02-11T16:22:47;8.80;99.90
47090;DHT22;32840;52.516;13.294;2023-02-11T16:25:46;8.90;99.90
47090;DHT22;32840;52.516;13.294;2023-02-11T16:28:31;8.90;99.90
47090;DHT22;32840;52.516;13.294;2023-02-11T16:31:18;8.80;99.90
47090;DHT22;32840;52.516;13.294;2023-02-11T16:34:10;8.80;99.90
47090;DHT22;32840;52.516;13.294;2023-02-11T16:36:56;8.80;99.90
47090;DHT22;32840;52.516;13.294;2023-02-11T16:39:40;8.80;99.90
47090;DHT22;32840;52.516;13.294;2023-02-11T16:42:25;8.80;99.90
47090;DHT22;32840;52.516;13.294;2023-02-11T16:45:10;8.90;99.90
47090;DHT22;32840;52.516;13.294;2023-02-11T16:47:55;9.00;99.90
47090;DHT22;32840;52.516;13.294;2023-02-11T16:50:44;9.00;99.90
47090;DHT22;32840;52.516;13.294;2023-02-11T16:53:30;9.00;99.90
47090;DHT22;32840;52.516;13.294;2023-02-11T16:56:16;9.00;99.90
47090;DHT22;32840;52.516;13.294;2023-02-11T16:59:01;9.00;99.90
47090;DHT22;32840;52.516;13.294;2023-02-11T17:01:52;9.00;99.90
47090;DHT22;32840;52.516;13.294;2023-02-11T17:04:37;9.00;99.90
47090;DHT22;32840;52.516;13.294;2023-02-11T17:07:25;8.90;99.90
47090;DHT22;32840;52.516;13.294;2023-02-11T17:10:19;8.90;99.90
47090;DHT22;32840;52.516;13.294;2023-02-11T17:13:04;8.80;99.90
47090;DHT22;32840;52.516;13.294;2023-02-11T17:15:50;8.80;99.90
47090;DHT22;32840;52.516;13.294;2023-02-11T17:18:35;8.90;99.90
47090;DHT22;32840;52.516;13.294;2023-02-11T17:21:20;9.00;99.90
47090;DHT22;32840;52.516;13.294;2023-02-11T17:24:05;9.00;99.90
47090;DHT22;32840;52.516;13.294;2023-02-11T17:27:21;8.90;99.90
47090;DHT22;32840;52.516;13.294;2023-02-11T17:30:06;8.80;99.90
47090;DHT22;32840;52.516;13.294;2023-02-11T17:32:52;8.80;99.90
47090;DHT22;32840;52.516;13.294;2023-02-11T17:35:40;8.90;99.90
47090;DHT22;32840;52.516;13.294;2023-02-11T17:38:25;8.80;99.90
47090;DHT22;32840;52.516;13.294;2023-02-11T17:41:10;8.90;99.90
47090;DHT22;32840;52.516;13.294;2023-02-11T17:43:59;9.00;99.90
47090;DHT22;32840;52.516;13.294;2023-02-11T17:46:46;8.90;99.90
47090;DHT22;32840;52.516;13.294;2023-02-11T17:49:30;8.80;99.90
47090;DHT22;32840;52.516;13.294;2023-02-11T17:52:16;8.80;99.90
47090;DHT22;32840;52.516;13.294;2023-02-11T17:55:01;8.80;99.90
47090;DHT22;32840;52.516;13.294;2023-02-11T17:57:48;8.90;99.90
47090;DHT22;32840;52.516;13.294;2023-02-11T18:00:35;8.90;99.90
47090;DHT22;32840;52.516;13.294;2023-02-11T18:03:20;9.00;99.90
47090;DHT22;32840;52.516;13.294;2023-02-11T18:06:06;9.00;99.90
47090;DHT22;32840;52.516;13.294;2023-02-11T18:08:52;9.00;99.90
47090;DHT22;32840;52.516;13.294;2023-02-11T18:11:38;9.10;99.90
47090;DHT22;32840;52.516;13.294;2023-02-11T18:14:27;9.00;99.90
47090;DHT22;32840;52.516;13.294;2023-02-11T18:17:11;8.90;99.90
47090;DHT22;32840;52.516;13.294;2023-02-11T18:19:59;9.00;99.90
47090;DHT22;32840;52.516;13.294;2023-02-11T18:22:45;8.90;99.90
47090;DHT22;32840;52.516;13.294;2023-02-11T18:25:31;9.00;99.90
47090;DHT22;32840;52.516;13.294;2023-02-11T18:28:15;9.10;99.90
47090;DHT22;32840;52.516;13.294;2023-02-11T18:31:03;9.10;99.90
47090;DHT22;32840;52.516;13.294;2023-02-11T18:33:47;9.20;99.90
47090;DHT22;32840;52.516;13.294;2023-02-11T18:36:32;9.20;99.90
47090;DHT22;32840;52.516;13.294;2023-02-11T18:39:18;9.20;99.90
47090;DHT22;32840;52.516;13.294;2023-02-11T18:42:03;9.20;99.90
47090;DHT22;32840;52.516;13.294;2023-02-11T18:44:48;9.10;99.90
47090;DHT22;32840;52.516;13.294;2023-02-11T18:47:33;9.10;99.90
47090;DHT22;32840;52.516;13.294;2023-02-11T18:50:18;9.10;99.90
47090;DHT22;32840;52.516;13.294;2023-02-11T18:53:26;9.10;99.90
47090;DHT22;32840;52.516;13.294;2023-02-11T18:56:21;9.10;99.90
47090;DHT22;32840;52.516;13.294;2023-02-11T18:59:06;9.10;99.90
47090;DHT22;32840;52.516;13.294;2023-02-11T19:01:51;9.20;99.90
47090;DHT22;32840;52.516;13.294;2023-02-11T19:04:38;9.20;99.90
47090;DHT22;32840;52.516;13.294;2023-02-11T19:07:28;9.20;99.90
47090;DHT22;32840;52.516;13.294;2023-02-11T19:10:13;9.20;99.90
47090;DHT22;32840;52.516;13.294;2023-02-11T19:12:57;9.20;99.90
47090;DHT22;32840;52.516;13.294;2023-02-11T19:15:44;9.20;99.90
47090;DHT22;32840;52.516;13.294;2023-02-11T19:18:29;9.20;99.90